Time;durP1;ratioP1;P1;durP2;ratioP2;P2;SDS_P1;SDS_P2;PMS_P1;PMS_P2;Temp;Humidity;BMP_temperature;BMP_pressure;BME280_temperature;BME280_humidity;BME280_pressure;Samples;Min_cycle;Max_cycle;Signal;HPM_P1;HPM_P2
2022/01/03 00:02:08;;;;;;;10.83;3.60;;;;;;;10.32;100.00;99333.34;10492432;28;20232;-64
2022/01/03 00:07:13;;;;;;;8.97;3.57;;;;;;;10.34;100.00;99305.66;10492764;28;20297;-64
2022/01/03 00:12:19;;;;;;;9.07;3.30;;;;;;;10.26;100.00;99312.78;10492441;28;20708;-64
2022/01/03 00:17:23;;;;;;;7.50;3.43;;;;;;;10.19;100.00;99310.38;10464955;28;20224;-63
2022/01/03 00:22:32;;;;;;;9.27;3.50;;;;;;;10.27;100.00;99311.03;10142284;27;9999737;-63
2022/01/03 00:27:44;;;;;;;7.23;3.30;;;;;;;10.25;100.00;99318.84;10544911;28;20234;-66
2022/01/03 00:32:49;;;;;;;6.30;3.03;;;;;;;10.20;100.00;99302.56;10544499;28;20218;-63
2022/01/03 00:37:53;;;;;;;7.13;3.27;;;;;;;10.19;100.00;99300.00;10545209;28;20215;-62
2022/01/03 00:42:57;;;;;;;7.00;3.13;;;;;;;10.21;100.00;99303.41;10544095;28;20231;-63
2022/01/03 00:48:00;;;;;;;8.83;3.40;;;;;;;10.19;100.00;99310.38;10543821;28;20219;-64
2022/01/03 00:53:06;;;;;;;6.50;2.50;;;;;;;10.28;100.00;99315.34;10543634;28;20254;-65
2022/01/03 00:58:13;;;;;;;8.50;3.40;;;;;;;10.36;100.00;99290.03;10543686;28;20226;-62
2022/01/03 01:03:20;;;;;;;9.70;3.30;;;;;;;10.45;100.00;99276.84;10543013;28;20235;-61
2022/01/03 01:08:26;;;;;;;6.33;2.87;;;;;;;10.33;100.00;99284.94;10543253;28;20589;-64
2022/01/03 01:13:29;;;;;;;8.70;2.90;;;;;;;10.38;100.00;99278.75;10529003;28;20248;-64
2022/01/03 01:18:36;;;;;;;10.57;3.10;;;;;;;10.40;100.00;99270.94;10490882;28;20231;-65
2022/01/03 01:23:42;;;;;;;6.90;2.90;;;;;;;10.38;100.00;99285.66;10495592;28;20219;-66
2022/01/03 01:28:46;;;;;;;6.73;3.03;;;;;;;10.24;100.00;99267.03;10488646;28;20254;-64
2022/01/03 01:33:53;;;;;;;7.23;2.50;;;;;;;10.20;100.00;99275.75;10462131;28;20220;-64
2022/01/03 01:39:03;;;;;;;6.70;2.70;;;;;;;10.07;100.00;99264.84;10462080;28;20224;-67
2022/01/03 01:44:09;;;;;;;6.77;2.70;;;;;;;10.10;100.00;99271.72;10461679;28;20303;-63
2022/01/03 01:49:17;;;;;;;6.27;2.27;;;;;;;10.03;100.00;99267.53;10461575;28;20259;-66
2022/01/03 01:54:28;;;;;;;5.13;2.00;;;;;;;10.08;100.00;99260.50;10461256;28;20558;-63
2022/01/03 01:59:39;;;;;;;9.40;2.90;;;;;;;10.04;100.00;99280.47;10461084;28;20684;-64
2022/01/03 02:05:00;;;;;;;8.00;2.03;;;;;;;10.08;100.00;99256.19;10495241;28;20228;-62
2022/01/03 02:10:10;;;;;;;5.97;2.40;;;;;;;10.10;100.00;99292.44;10502176;28;20215;-65
2022/01/03 02:15:16;;;;;;;5.60;2.13;;;;;;;10.09;100.00;99259.66;10501872;28;20231;-62
2022/01/03 02:20:23;;;;;;;7.23;2.67;;;;;;;10.10;100.00;99284.69;10501282;28;20689;-61
2022/01/03 02:25:27;;;;;;;7.03;2.37;;;;;;;10.01;100.00;99264.16;10501375;28;20227;-66
2022/01/03 02:30:32;;;;;;;6.73;2.10;;;;;;;10.01;100.00;99246.03;10501563;28;20216;-63
2022/01/03 02:35:38;;;;;;;8.00;2.50;;;;;;;9.85;100.00;99235.19;10501141;28;20218;-64
2022/01/03 02:40:42;;;;;;;5.80;2.07;;;;;;;9.86;100.00;99248.97;10484442;28;20216;-66
2022/01/03 02:45:45;;;;;;;5.80;2.23;;;;;;;9.74;100.00;99238.91;10500995;28;20252;-62
2022/01/03 02:50:50;;;;;;;4.63;1.93;;;;;;;9.81;100.00;99276.75;10489855;28;20292;-66
2022/01/03 02:55:53;;;;;;;6.37;2.30;;;;;;;9.73;100.00;99219.94;10483282;28;20212;-66
2022/01/03 03:00:56;;;;;;;8.00;2.00;;;;;;;9.62;100.00;99236.63;10458985;28;20315;-62
2022/01/03 03:06:01;;;;;;;6.47;2.30;;;;;;;9.56;100.00;99221.25;10458784;28;20297;-65
2022/01/03 03:11:04;;;;;;;5.87;2.10;;;;;;;9.49;100.00;99232.66;10458967;28;20213;-65
2022/01/03 03:16:07;;;;;;;5.47;2.17;;;;;;;9.42;100.00;99231.09;10458908;28;20303;-65
2022/01/03 03:21:12;;;;;;;5.30;2.10;;;;;;;9.41;100.00;99229.38;10458827;28;20270;-66
2022/01/03 03:26:15;;;;;;;5.67;2.10;;;;;;;9.30;100.00;99222.69;10458464;28;20220;-67
2022/01/03 03:31:19;;;;;;;7.53;2.33;;;;;;;9.24;100.00;99222.84;10458679;28;20217;-65
2022/01/03 03:36:23;;;;;;;7.27;4.00;;;;;;;9.17;100.00;99230.78;10458648;28;20216;-65
2022/01/03 03:41:27;;;;;;;4.73;2.07;;;;;;;9.34;100.00;99211.41;10458741;28;20212;-64
2022/01/03 03:46:30;;;;;;;5.90;2.07;;;;;;;9.27;100.00;99227.97;10458368;28;20673;-63
2022/01/03 03:51:38;;;;;;;4.53;1.53;;;;;;;9.34;100.00;99219.16;10464460;28;20216;-64
2022/01/03 03:56:41;;;;;;;4.23;1.60;;;;;;;9.28;100.00;99227.06;10466017;28;20221;-63
2022/01/03 04:01:44;;;;;;;6.97;2.13;;;;;;;9.18;100.00;99225.56;10465806;28;20244;-63
2022/01/03 04:06:49;;;;;;;6.57;1.80;;;;;;;9.08;100.00;99236.16;10465586;28;20240;-63
2022/01/03 04:11:53;;;;;;;7.27;2.30;;;;;;;9.08;100.00;99231.00;10465260;28;20750;-62
2022/01/03 04:16:56;;;;;;;5.53;2.00;;;;;;;9.09;100.00;99230.13;10464942;28;20220;-63
2022/01/03 04:22:01;;;;;;;6.40;1.60;;;;;;;8.97;100.00;99238.97;10464752;28;20227;-61
2022/01/03 04:27:04;;;;;;;6.07;2.00;;;;;;;8.95;100.00;99229.56;10464640;28;20672;-67
2022/01/03 04:32:07;;;;;;;9.10;3.87;;;;;;;8.81;100.00;99222.09;10464457;28;20682;-64
2022/01/03 04:37:14;;;;;;;6.63;2.33;;;;;;;8.82;100.00;99218.63;10464464;28;20227;-63
2022/01/03 04:42:17;;;;;;;13.57;2.53;;;;;;;8.76;100.00;99221.34;10464240;28;20569;-65
2022/01/03 04:47:21;;;;;;;6.33;2.90;;;;;;;8.67;100.00;99234.47;10463913;28;20232;-65
2022/01/03 04:52:25;;;;;;;9.17;3.33;;;;;;;8.49;100.00;99239.16;10463567;28;20223;-64
2022/01/03 04:57:31;;;;;;;8.93;3.17;;;;;;;8.58;100.00;99237.22;10463628;28;20220;-63
2022/01/03 05:02:36;;;;;;;7.67;3.40;;;;;;;8.63;100.00;99234.56;10463201;28;20229;-62
2022/01/03 05:07:41;;;;;;;7.17;2.50;;;;;;;8.60;100.00;99242.38;10463288;28;20550;-60
2022/01/03 05:12:44;;;;;;;8.50;2.90;;;;;;;8.60;100.00;99257.88;10462911;28;20213;-61
2022/01/03 05:17:47;;;;;;;6.70;2.53;;;;;;;8.65;100.00;99262.09;10462807;28;20307;-64
2022/01/03 05:22:52;;;;;;;20.03;9.87;;;;;;;8.50;100.00;99249.47;10462605;28;20292;-65
2022/01/03 05:27:55;;;;;;;5.60;2.77;;;;;;;8.55;100.00;99233.84;10462474;28;20216;-63
2022/01/03 05:32:59;;;;;;;10.73;2.90;;;;;;;8.60;100.00;99229.44;10462000;28;20223;-63
2022/01/03 05:38:03;;;;;;;8.00;2.63;;;;;;;8.59;100.00;99241.53;10461841;28;20221;-61
2022/01/03 05:43:07;;;;;;;6.73;3.13;;;;;;;8.47;100.00;99257.31;10487307;28;20226;-63
2022/01/03 05:48:10;;;;;;;9.70;3.57;;;;;;;8.43;100.00;99242.72;10484535;28;20220;-65
2022/01/03 05:53:14;;;;;;;7.30;3.50;;;;;;;8.42;100.00;99259.09;10486906;28;20212;-65
2022/01/03 05:58:18;;;;;;;7.67;3.20;;;;;;;8.52;100.00;99250.31;10502388;28;20300;-63
2022/01/03 06:03:21;;;;;;;6.60;2.67;;;;;;;8.46;100.00;99246.97;10501927;28;20248;-62
2022/01/03 06:08:26;;;;;;;7.60;3.37;;;;;;;8.41;100.00;99252.22;10502203;28;20301;-61
2022/01/03 06:13:30;;;;;;;8.10;3.30;;;;;;;8.35;100.00;99254.09;10479807;28;20227;-64
2022/01/03 06:18:34;;;;;;;6.87;3.47;;;;;;;8.38;100.00;99262.63;10460501;28;20239;-62
2022/01/03 06:23:39;;;;;;;6.57;3.23;;;;;;;8.33;100.00;99259.28;10460202;28;20252;-62
2022/01/03 06:28:43;;;;;;;15.80;8.03;;;;;;;8.24;100.00;99276.69;10460132;28;20226;-64
2022/01/03 06:33:46;;;;;;;12.10;4.73;;;;;;;8.29;100.00;99269.69;10469248;28;20549;-64
2022/01/03 06:38:50;;;;;;;8.70;3.23;;;;;;;8.28;100.00;99276.63;10501270;28;20239;-64
2022/01/03 06:43:54;;;;;;;7.63;3.37;;;;;;;8.31;100.00;99279.16;10500718;28;20649;-62
2022/01/03 06:48:57;;;;;;;6.33;3.13;;;;;;;8.18;100.00;99281.06;10500963;28;20212;-64
2022/01/03 06:54:04;;;;;;;7.13;3.10;;;;;;;8.32;100.00;99280.84;10500566;28;20261;-62
2022/01/03 06:59:08;;;;;;;9.30;3.60;;;;;;;8.39;100.00;99289.34;10500742;28;20267;-66
2022/01/03 07:04:11;;;;;;;7.23;3.80;;;;;;;8.34;100.00;99281.66;10500104;28;20236;-65
2022/01/03 07:09:15;;;;;;;10.40;3.63;;;;;;;8.29;100.00;99290.38;10500117;28;20642;-63
2022/01/03 07:19:40;;;;;;;13.67;5.70;;;;;;;8.38;100.00;99282.47;10492671;28;20230;-61
2022/01/03 07:24:45;;;;;;;10.00;4.40;;;;;;;8.36;100.00;99289.38;10461758;28;20244;-63
2022/01/03 07:29:50;;;;;;;13.10;4.57;;;;;;;8.30;100.00;99285.19;10466475;28;20330;-63
2022/01/03 07:34:55;;;;;;;7.93;3.90;;;;;;;8.35;100.00;99283.38;10466765;28;20227;-61
2022/01/03 07:40:00;;;;;;;11.00;4.07;;;;;;;8.37;100.00;99283.34;10466461;28;20188;-64
2022/01/03 07:45:04;;;;;;;6.97;3.37;;;;;;;8.29;100.00;99283.47;10478434;28;20649;-64
2022/01/03 07:50:09;;;;;;;8.77;3.77;;;;;;;8.34;100.00;99273.91;10473006;28;20201;-62
2022/01/03 07:55:15;;;;;;;8.60;3.97;;;;;;;8.46;100.00;99280.56;10473252;28;20225;-64
2022/01/03 08:00:19;;;;;;;8.20;3.93;;;;;;;8.69;100.00;99279.28;10490354;28;20280;-63
2022/01/03 08:05:22;;;;;;;9.43;3.33;;;;;;;8.73;100.00;99282.66;10468061;28;20358;-64
2022/01/03 08:10:27;;;;;;;9.40;3.50;;;;;;;8.79;100.00;99279.91;10465723;28;20196;-65
2022/01/03 08:15:30;;;;;;;9.03;2.83;;;;;;;8.88;100.00;99271.97;10465338;28;20517;-65
2022/01/03 08:20:34;;;;;;;7.17;3.47;;;;;;;8.79;100.00;99280.78;10468994;28;20636;-64
2022/01/03 08:25:39;;;;;;;8.80;3.63;;;;;;;8.85;100.00;99280.63;10506213;28;20266;-66
2022/01/03 08:30:43;;;;;;;7.43;3.57;;;;;;;8.76;100.00;99270.50;10506292;28;20198;-62
2022/01/03 08:35:46;;;;;;;10.07;3.83;;;;;;;8.96;100.00;99275.25;10497971;28;20200;-65
2022/01/03 08:40:50;;;;;;;13.53;4.17;;;;;;;8.96;100.00;99270.94;10497679;28;20197;-62
2022/01/03 08:45:54;;;;;;;9.60;4.13;;;;;;;9.04;100.00;99271.59;10463781;28;20224;-66
2022/01/03 08:50:58;;;;;;;11.40;3.90;;;;;;;9.06;100.00;99275.03;10465610;28;20323;-67
2022/01/03 08:56:07;;;;;;;9.77;4.33;;;;;;;9.05;100.00;99273.34;10464147;28;20272;-62
2022/01/03 09:01:10;;;;;;;8.50;3.83;;;;;;;9.11;100.00;99277.53;10463265;28;20656;-65
2022/01/03 09:06:14;;;;;;;9.27;4.10;;;;;;;9.01;100.00;99274.28;10463351;28;20224;-66
2022/01/03 09:11:18;;;;;;;10.77;3.80;;;;;;;9.04;100.00;99279.38;10463176;28;20216;-64
2022/01/03 09:16:25;;;;;;;13.67;4.90;;;;;;;9.07;100.00;99276.75;10462970;28;20561;-63
2022/01/03 09:21:29;;;;;;;9.00;4.53;;;;;;;8.97;100.00;99288.16;10462608;28;20304;-65
2022/01/03 09:31:56;;;;;;;13.27;4.07;;;;;;;9.00;100.00;99282.06;10503527;28;20519;-62
2022/01/03 09:37:00;;;;;;;14.03;4.03;;;;;;;9.01;100.00;99294.97;10503343;28;20618;-66
2022/01/03 09:42:12;;;;;;;7.27;3.37;;;;;;;9.11;100.00;99278.34;10502972;28;20189;-65
2022/01/03 09:47:17;;;;;;;6.17;3.30;;;;;;;8.94;100.00;99274.41;10501883;28;20226;-66
2022/01/03 09:52:24;;;;;;;7.83;2.90;;;;;;;8.92;100.00;99269.28;10502736;28;20226;-63
2022/01/03 09:57:30;;;;;;;7.33;3.00;;;;;;;8.86;100.00;99268.56;10147620;27;9999948;-62
2022/01/03 10:02:34;;;;;;;6.77;2.63;;;;;;;8.81;100.00;99279.03;10495858;28;20641;-67
2022/01/03 10:07:40;;;;;;;5.10;2.30;;;;;;;8.85;100.00;99277.22;10498687;28;20668;-66
2022/01/03 10:12:45;;;;;;;5.83;2.90;;;;;;;8.75;100.00;99268.78;10498985;28;20702;-65
2022/01/03 10:17:48;;;;;;;6.77;2.40;;;;;;;8.69;100.00;99265.47;10498601;28;20268;-66
2022/01/03 10:22:51;;;;;;;5.87;2.57;;;;;;;8.47;100.00;99265.06;10498189;28;20216;-64
2022/01/03 10:27:59;;;;;;;10.50;3.90;;;;;;;8.51;100.00;99253.75;10497835;28;20248;-65
2022/01/03 10:33:04;;;;;;;7.63;2.53;;;;;;;8.46;100.00;99262.47;10497743;28;20264;-64
2022/01/03 10:38:09;;;;;;;5.60;2.30;;;;;;;8.49;100.00;99265.84;10497096;28;20231;-66
2022/01/03 10:43:16;;;;;;;9.27;2.70;;;;;;;8.42;100.00;99268.59;10497500;28;20680;-63
2022/01/03 10:48:28;;;;;;;5.93;2.30;;;;;;;8.28;100.00;99276.63;10497306;28;20396;-64
2022/01/03 10:53:37;;;;;;;7.30;2.57;;;;;;;8.05;100.00;99268.38;10497492;28;20548;-64
2022/01/03 10:58:42;;;;;;;4.83;2.10;;;;;;;8.15;100.00;99270.78;10496840;28;20311;-65
2022/01/03 11:03:46;;;;;;;6.13;1.87;;;;;;;8.09;100.00;99267.47;10496892;28;20681;-62
2022/01/03 11:14:38;;;;;;;6.17;2.07;;;;;;;8.04;100.00;99261.53;10368661;28;20432;-64
2022/01/03 11:19:42;;;;;;;4.90;1.50;;;;;;;8.04;100.00;99259.78;10472325;28;20322;-64
2022/01/03 11:24:49;;;;;;;4.47;1.63;;;;;;;8.22;100.00;99245.66;10496692;28;20795;-62
2022/01/03 11:29:53;;;;;;;8.63;1.90;;;;;;;8.06;100.00;99249.41;10496651;28;20790;-63
2022/01/03 11:34:58;;;;;;;4.90;1.47;;;;;;;7.99;100.00;99243.50;10496716;28;20220;-63
2022/01/03 11:40:04;;;;;;;4.97;1.60;;;;;;;8.20;100.00;99245.72;10496449;28;20284;-63
2022/01/03 11:45:09;;;;;;;4.90;1.73;;;;;;;8.17;100.00;99231.97;10476007;28;20217;-63
2022/01/03 11:50:13;;;;;;;8.13;1.50;;;;;;;8.12;100.00;99242.41;10470845;28;20290;-65
2022/01/03 11:55:17;;;;;;;6.50;1.80;;;;;;;8.07;100.00;99239.06;10473527;28;20660;-62
2022/01/03 12:05:50;;;;;;;5.50;2.20;;;;;;;8.31;100.00;99236.94;10437102;28;20236;-64
2022/01/03 12:10:53;;;;;;;5.83;1.60;;;;;;;8.37;100.00;99235.06;10483795;28;20219;-63
2022/01/03 12:16:05;;;;;;;8.50;2.60;;;;;;;8.34;100.00;99232.56;10473891;28;20303;-67
2022/01/03 12:21:09;;;;;;;6.03;1.80;;;;;;;8.36;100.00;99232.50;10467095;28;20209;-64
2022/01/03 12:26:13;;;;;;;6.00;2.00;;;;;;;8.40;100.00;99250.53;10462293;28;20267;-67
2022/01/03 12:31:18;;;;;;;3.57;1.53;;;;;;;8.50;100.00;99252.06;10497821;28;20226;-68
2022/01/03 12:36:23;;;;;;;5.93;2.53;;;;;;;8.52;100.00;99254.63;10505000;28;20230;-65
2022/01/03 12:41:39;;;;;;;6.20;2.57;;;;;;;8.62;100.00;99256.13;10485263;28;20295;-65
2022/01/03 12:46:44;;;;;;;6.50;2.80;;;;;;;8.58;100.00;99260.50;10479989;28;20312;-65
2022/01/03 12:51:47;;;;;;;8.33;3.23;;;;;;;8.38;100.00;99256.59;10463390;28;20718;-65
2022/01/03 12:56:51;;;;;;;7.50;2.83;;;;;;;8.40;100.00;99278.97;10463583;28;20553;-66
2022/01/03 13:02:15;;;;;;;5.83;2.70;;;;;;;8.43;100.00;99278.91;10463111;28;20562;-63
2022/01/03 13:07:22;;;;;;;5.03;3.07;;;;;;;8.40;100.00;99281.56;10462892;28;20224;-66
2022/01/03 13:12:26;;;;;;;7.33;2.80;;;;;;;8.40;100.00;99294.50;10463508;28;20227;-64
2022/01/03 13:17:32;;;;;;;6.63;3.13;;;;;;;8.40;100.00;99303.97;10470614;28;20773;-69
2022/01/03 13:22:41;;;;;;;6.60;2.60;;;;;;;8.24;100.00;99313.72;10130484;27;9999983;-61
2022/01/03 13:27:45;;;;;;;5.70;3.00;;;;;;;8.33;100.00;99325.63;10542563;28;20262;-65
2022/01/03 13:32:57;;;;;;;21.90;14.33;;;;;;;8.26;100.00;99330.06;10532104;28;20294;-63
2022/01/03 13:38:16;;;;;;;9.47;2.90;;;;;;;8.42;100.00;99334.06;10500034;28;20307;-66
2022/01/03 13:43:26;;;;;;;8.13;4.07;;;;;;;8.42;100.00;99341.00;10473275;28;20669;-62
2022/01/03 13:53:55;;;;;;;6.50;2.97;;;;;;;8.31;100.00;99355.81;10459931;28;20247;-62
2022/01/03 13:59:00;;;;;;;5.77;2.70;;;;;;;8.22;100.00;99369.72;10498678;28;20306;-71
2022/01/03 14:04:08;;;;;;;9.07;4.47;;;;;;;8.53;100.00;99364.91;10468590;28;20228;-64
2022/01/03 14:09:14;;;;;;;10.70;4.00;;;;;;;8.31;100.00;99369.63;10482455;28;20238;-63
2022/01/03 14:14:38;;;;;;;7.30;3.90;;;;;;;8.17;100.00;99384.47;10457372;28;20215;-63
2022/01/03 14:19:43;;;;;;;11.50;5.10;;;;;;;8.13;100.00;99385.38;10486637;28;20231;-64
2022/01/03 14:24:58;;;;;;;8.03;4.80;;;;;;;8.10;100.00;99393.19;10497778;28;20212;-64
2022/01/03 14:30:22;;;;;;;7.33;4.43;;;;;;;8.20;100.00;99398.19;10521606;28;20219;-65
2022/01/03 14:35:33;;;;;;;11.93;6.57;;;;;;;8.19;100.00;99413.72;10516227;28;20704;-64
2022/01/03 14:40:45;;;;;;;7.03;3.80;;;;;;;8.24;100.00;99411.94;10456450;28;20213;-63
2022/01/03 14:45:50;;;;;;;20.17;12.87;;;;;;;8.51;100.00;99413.25;10456051;28;20217;-68
2022/01/03 14:51:07;;;;;;;6.77;3.50;;;;;;;8.32;100.00;99412.66;10459451;28;20296;-66
2022/01/03 14:56:25;;;;;;;7.87;4.07;;;;;;;8.05;100.00;99424.28;10488447;28;20788;-69
2022/01/03 15:01:28;;;;;;;7.53;4.27;;;;;;;7.94;100.00;99426.16;10466634;28;20271;-68
2022/01/03 15:06:33;;;;;;;8.63;4.40;;;;;;;7.89;100.00;99429.69;10465538;28;20295;-61
2022/01/03 15:11:36;;;;;;;6.80;4.37;;;;;;;7.90;100.00;99445.16;10483909;28;20223;-62
2022/01/03 15:16:40;;;;;;;7.90;3.90;;;;;;;7.91;100.00;99454.63;10478974;28;20227;-65
2022/01/03 15:21:45;;;;;;;11.87;6.10;;;;;;;7.87;100.00;99450.38;10480371;28;20219;-66
2022/01/03 15:26:48;;;;;;;10.47;4.40;;;;;;;8.07;100.00;99463.00;10478391;28;20238;-65
2022/01/03 15:31:51;;;;;;;11.40;4.20;;;;;;;7.88;100.00;99457.25;10494536;28;20923;-63
2022/01/03 15:36:56;;;;;;;10.17;4.53;;;;;;;7.88;100.00;99464.16;10495612;28;20584;-65
2022/01/03 15:41:59;;;;;;;7.43;3.70;;;;;;;7.91;100.00;99459.78;10496042;28;20731;-63
2022/01/03 15:47:04;;;;;;;7.47;3.97;;;;;;;7.88;100.00;99459.84;10501001;28;20232;-61
2022/01/03 15:52:09;;;;;;;6.30;3.00;;;;;;;7.86;100.00;99468.47;10503268;28;20703;-64
2022/01/03 15:57:12;;;;;;;5.37;2.97;;;;;;;7.85;100.00;99477.94;10499498;28;20306;-65
2022/01/03 16:02:15;;;;;;;8.53;3.93;;;;;;;7.76;100.00;99482.38;10499234;28;20546;-62
2022/01/03 16:07:20;;;;;;;9.67;4.10;;;;;;;7.78;100.00;99485.81;10502795;28;20220;-65
2022/01/03 16:12:23;;;;;;;12.93;7.07;;;;;;;7.80;100.00;99491.81;10502601;28;20222;-63
2022/01/03 16:17:27;;;;;;;9.10;4.00;;;;;;;7.91;100.00;99500.25;10502509;28;20218;-64
2022/01/03 16:22:31;;;;;;;7.90;4.00;;;;;;;7.86;100.00;99504.63;10500138;28;20299;-63
2022/01/03 16:27:35;;;;;;;6.43;3.90;;;;;;;7.76;100.00;99503.06;10530567;28;20274;-63
2022/01/03 16:32:38;;;;;;;7.43;3.73;;;;;;;7.70;100.00;99508.28;10502531;28;20227;-64
2022/01/03 16:37:43;;;;;;;101.97;50.13;;;;;;;7.70;100.00;99503.97;10502580;28;20228;-65
2022/01/03 16:42:46;;;;;;;8.17;3.10;;;;;;;7.65;100.00;99510.94;10502128;28;20232;-62
2022/01/03 16:47:50;;;;;;;8.43;3.07;;;;;;;7.73;100.00;99493.59;10501713;28;20269;-64
2022/01/03 16:52:54;;;;;;;8.93;3.13;;;;;;;7.61;100.00;99498.91;10478847;28;20239;-63
2022/01/03 16:57:57;;;;;;;8.73;3.27;;;;;;;7.66;100.00;99504.88;10460855;28;20225;-64
2022/01/03 17:03:01;;;;;;;9.60;3.20;;;;;;;7.70;100.00;99490.19;10497164;28;20318;-66
2022/01/03 17:08:06;;;;;;;11.23;4.57;;;;;;;7.51;100.00;99491.28;10501028;28;20219;-63
2022/01/03 17:13:10;;;;;;;10.30;3.30;;;;;;;7.64;100.00;99491.16;10501317;28;20208;-65
2022/01/03 17:18:14;;;;;;;8.83;3.33;;;;;;;7.60;100.00;99501.53;10500972;28;20192;-65
2022/01/03 17:23:18;;;;;;;9.63;3.70;;;;;;;7.50;100.00;99497.34;10516309;28;20192;-62
2022/01/03 17:28:23;;;;;;;9.53;3.50;;;;;;;7.50;100.00;99494.75;10542119;28;20294;-65
2022/01/03 17:33:32;;;;;;;6.73;3.20;;;;;;;7.59;100.00;99495.50;10542336;28;20623;-64
2022/01/03 17:38:37;;;;;;;10.77;5.00;;;;;;;7.37;100.00;99491.47;10541182;28;20202;-62
2022/01/03 17:43:40;;;;;;;9.43;5.00;;;;;;;7.49;100.00;99498.22;10496780;28;20618;-67
2022/01/03 17:48:43;;;;;;;10.10;5.07;;;;;;;7.52;100.00;99499.06;10499806;28;20227;-67
2022/01/03 17:53:50;;;;;;;12.57;4.93;;;;;;;7.66;100.00;99497.13;10487968;28;20362;-62
2022/01/03 17:58:54;;;;;;;19.50;10.73;;;;;;;7.73;100.00;99506.50;10463782;28;20266;-65
2022/01/03 18:04:02;;;;;;;10.07;5.40;;;;;;;7.72;100.00;99499.66;10485440;28;20270;-64
2022/01/03 18:09:07;;;;;;;13.13;6.33;;;;;;;7.82;100.00;99479.72;10481113;28;20273;-61
2022/01/03 18:14:10;;;;;;;17.63;7.87;;;;;;;7.82;100.00;99487.47;10496497;28;20216;-65
2022/01/03 18:19:13;;;;;;;15.83;6.53;;;;;;;7.85;100.00;99490.84;10498214;28;20607;-62
2022/01/03 18:24:18;;;;;;;11.70;5.60;;;;;;;7.82;100.00;99490.03;10521710;28;20215;-63
2022/01/03 18:29:21;;;;;;;14.03;5.63;;;;;;;7.84;100.00;99491.75;10539986;28;20306;-61
2022/01/03 18:34:26;;;;;;;12.27;5.57;;;;;;;7.85;100.00;99487.44;10539872;28;20239;-61
2022/01/03 18:39:31;;;;;;;12.63;6.33;;;;;;;7.80;100.00;99490.06;10539782;28;20319;-63
2022/01/03 18:44:34;;;;;;;11.93;5.97;;;;;;;7.85;100.00;99493.44;10539399;28;20215;-61
2022/01/03 18:49:38;;;;;;;12.87;5.57;;;;;;;7.87;100.00;99489.13;10541785;28;20233;-64
2022/01/03 18:54:43;;;;;;;11.87;4.50;;;;;;;7.99;100.00;99488.94;10480639;28;20215;-63
2022/01/03 18:59:46;;;;;;;17.17;5.10;;;;;;;7.87;100.00;99491.69;10490627;28;20233;-65
2022/01/03 19:04:49;;;;;;;13.03;4.50;;;;;;;7.83;100.00;99490.06;10499682;28;20250;-62
2022/01/03 19:09:54;;;;;;;12.47;4.53;;;;;;;7.79;100.00;99483.22;10476773;28;20319;-64
2022/01/03 19:14:57;;;;;;;11.37;4.87;;;;;;;7.71;100.00;99476.44;10461033;28;20222;-65
2022/01/03 19:20:00;;;;;;;13.77;5.23;;;;;;;7.91;100.00;99484.75;10503624;28;20259;-66
2022/01/03 19:25:06;;;;;;;16.53;4.97;;;;;;;7.76;100.00;99472.91;10508241;28;20664;-64
2022/01/03 19:30:10;;;;;;;12.93;4.83;;;;;;;7.79;100.00;99474.59;10508304;28;20223;-61
2022/01/03 19:40:55;;;;;;;12.83;4.53;;;;;;;7.75;100.00;99462.59;10507987;28;20223;-63
2022/01/03 19:45:58;;;;;;;12.70;5.00;;;;;;;7.80;100.00;99463.41;10507339;28;20216;-66
2022/01/03 19:51:03;;;;;;;13.03;4.53;;;;;;;7.79;100.00;99469.44;10507390;28;20224;-68
2022/01/03 19:56:07;;;;;;;18.93;5.30;;;;;;;7.76;100.00;99470.34;10507173;28;20669;-64
2022/01/03 20:01:11;;;;;;;11.50;4.00;;;;;;;7.75;100.00;99483.25;10506809;28;20232;-66
2022/01/03 20:06:14;;;;;;;13.30;3.90;;;;;;;7.90;100.00;99480.47;10506780;28;20231;-64
2022/01/03 20:11:19;;;;;;;16.03;4.60;;;;;;;7.80;100.00;99494.41;10506587;28;20236;-64
2022/01/03 20:16:23;;;;;;;15.70;4.67;;;;;;;7.76;100.00;99484.97;10506501;28;20220;-63
2022/01/03 20:21:26;;;;;;;18.23;4.53;;;;;;;7.64;100.00;99491.16;10506109;28;20617;-63
2022/01/03 20:26:31;;;;;;;10.73;4.40;;;;;;;7.75;100.00;99494.44;10506265;28;20220;-64
2022/01/03 20:31:35;;;;;;;11.27;4.40;;;;;;;7.74;100.00;99492.75;10505177;28;20220;-65
2022/01/03 20:36:38;;;;;;;10.33;4.27;;;;;;;7.76;100.00;99472.91;10505853;28;20226;-65
2022/01/03 20:41:45;;;;;;;13.00;4.70;;;;;;;7.74;100.00;99474.66;10505522;28;20230;-69
2022/01/03 20:46:48;;;;;;;12.23;4.90;;;;;;;7.81;100.00;99478.00;10505358;28;20307;-66
2022/01/03 20:51:53;;;;;;;11.67;4.30;;;;;;;7.68;100.00;99484.22;10505106;28;20224;-63
2022/01/03 20:56:58;;;;;;;14.80;5.13;;;;;;;7.65;100.00;99497.16;10504877;28;20212;-63
2022/01/03 21:02:02;;;;;;;16.13;4.70;;;;;;;7.66;100.00;99496.28;10504539;28;20638;-61
2022/01/03 21:07:06;;;;;;;14.00;4.20;;;;;;;7.58;100.00;99492.94;10504707;28;20295;-65
2022/01/03 21:12:11;;;;;;;14.20;4.70;;;;;;;7.62;100.00;99487.72;10504617;28;20216;-64
2022/01/03 21:17:15;;;;;;;12.13;4.37;;;;;;;7.70;100.00;99479.88;10504376;28;20212;-61
2022/01/03 21:22:18;;;;;;;13.40;4.13;;;;;;;7.66;100.00;99478.22;10503833;28;20226;-66
2022/01/03 21:27:23;;;;;;;11.83;4.27;;;;;;;7.61;100.00;99477.44;10503814;28;20541;-64
2022/01/03 21:32:26;;;;;;;9.73;3.50;;;;;;;7.64;100.00;99482.53;10503475;28;20212;-65
2022/01/03 21:37:30;;;;;;;7.43;3.20;;;;;;;7.61;100.00;99478.25;10503455;28;20188;-63
2022/01/03 21:42:37;;;;;;;9.20;3.67;;;;;;;7.67;100.00;99467.00;10502111;28;20250;-62
2022/01/03 21:47:41;;;;;;;9.63;3.17;;;;;;;7.68;100.00;99479.06;10503056;28;20198;-64
2022/01/03 21:52:44;;;;;;;10.97;3.10;;;;;;;7.62;100.00;99468.78;10495768;28;20354;-66
2022/01/03 21:57:50;;;;;;;9.27;3.30;;;;;;;7.48;100.00;99475.84;10481162;28;20222;-66
2022/01/03 22:02:56;;;;;;;9.93;3.27;;;;;;;7.20;100.00;99462.41;10132899;28;9999924;-61
2022/01/03 22:07:59;;;;;;;9.20;3.40;;;;;;;7.14;100.00;99459.03;10460536;28;20209;-66
2022/01/03 22:13:04;;;;;;;8.80;3.37;;;;;;;7.17;100.00;99457.28;10457493;28;20258;-67
2022/01/03 22:18:08;;;;;;;12.30;3.30;;;;;;;7.24;100.00;99460.66;10482436;28;20198;-63
2022/01/03 22:23:11;;;;;;;7.47;3.50;;;;;;;7.38;100.00;99461.34;10492219;28;20295;-65
2022/01/03 22:28:16;;;;;;;9.07;3.83;;;;;;;7.44;100.00;99443.22;10495871;28;20300;-65
2022/01/03 22:33:19;;;;;;;9.37;3.27;;;;;;;7.31;100.00;99441.66;10457226;28;20666;-64
2022/01/03 22:38:23;;;;;;;10.03;3.27;;;;;;;7.41;100.00;99444.09;10456522;28;20308;-67
2022/01/03 22:43:28;;;;;;;7.57;3.27;;;;;;;7.35;100.00;99436.41;10479442;28;20227;-64
2022/01/03 22:48:31;;;;;;;12.03;3.83;;;;;;;7.34;100.00;99432.13;10497560;28;20219;-67
2022/01/03 22:53:35;;;;;;;8.67;3.40;;;;;;;7.20;100.00;99426.28;10497307;28;20220;-64
2022/01/03 22:58:40;;;;;;;11.97;4.20;;;;;;;7.17;100.00;99418.59;10484049;28;20217;-66
2022/01/03 23:03:43;;;;;;;11.77;4.37;;;;;;;7.23;100.00;99422.81;10510720;28;20289;-62
2022/01/03 23:08:48;;;;;;;10.57;4.07;;;;;;;7.36;100.00;99416.63;10497524;28;20219;-64
2022/01/03 23:13:53;;;;;;;14.60;5.70;;;;;;;7.34;100.00;99408.91;10465626;28;20312;-66
2022/01/03 23:18:57;;;;;;;14.57;4.60;;;;;;;7.17;100.00;99415.13;10455634;28;20707;-65
2022/01/03 23:24:01;;;;;;;10.53;4.13;;;;;;;7.18;100.00;99403.97;10455671;28;20240;-61
2022/01/03 23:29:07;;;;;;;13.13;4.53;;;;;;;7.31;100.00;99405.50;10463424;28;20234;-65
2022/01/03 23:34:18;;;;;;;13.47;4.50;;;;;;;7.45;100.00;99380.38;10468069;28;20296;-67
2022/01/03 23:39:21;;;;;;;13.97;4.53;;;;;;;7.47;100.00;99378.63;10482312;28;20226;-64
2022/01/03 23:44:27;;;;;;;12.37;4.00;;;;;;;7.51;100.00;99382.88;10496514;28;20733;-64
2022/01/03 23:49:30;;;;;;;13.40;4.13;;;;;;;7.45;100.00;99389.00;10496463;28;20220;-62
2022/01/03 23:54:34;;;;;;;13.53;5.20;;;;;;;7.32;100.00;99394.31;10496552;28;20277;-61
2022/01/03 23:59:38;;;;;;;11.83;5.00;;;;;;;7.36;100.00;99383.94;10475259;28;20333;-64
